KCOU/COU METAR and TAF weather

Enter ICAO airport designator
Station Type Date Time Source
KCOU METAR 2020/09/22 08:54 UTC NOAA

KCOU 220854Z AUTO 11005KT 10SM CLR 14/12 A3020 RMK AO2 SLP223 T01440122 56004


Station Type Date Time Source
KCOU Decoded METAR 2020/09/22 08:54 UTC NOAA

COLUMBIA REGIONAL AIRPORT, MO, United States (KCOU) 38-49N 092-13W 271M
Sep 22, 2020 - 04:54 AM EDT / 2020.09.22 0854 UTC
Wind: from the ESE (110 degrees) at 6 MPH (5 KT):0
Visibility: 10 mile(s):0
Sky conditions: clear
Temperature: 57.9 F (14.4 C)
Dew Point: 54.0 F (12.2 C)
Relative Humidity: 86%
Pressure (altimeter): 30.2 in. Hg (1022 hPa)
Pressure tendency: 0.01 inches (0.4 hPa) lower than three hours ago
ob: KCOU 220854Z AUTO 11005KT 10SM CLR 14/12 A3020 RMK AO2 SLP223 T01440122 56004
cycle: 9

Station Type Date Time Source
KCOU TAF 2020/09/22 06:22 UTC NOAA

TAF KCOU 220520Z 2206/2306 VRB04KT P6SM FEW250
FM221600 17005KT P6SM SCT040 BKN250
FM230000 VRB04KT P6SM BKN250

Example: see airport list